Time;durP1;ratioP1;P1;durP2;ratioP2;P2;SDS_P1;SDS_P2;PMS_P1;PMS_P2;Temp;Humidity;BMP_temperature;BMP_pressure;BME280_temperature;BME280_humidity;BME280_pressure;Samples;Min_cycle;Max_cycle;Signal;HPM_P1;HPM_P2
2021/01/09 00:02:16;;;;;;;2.50;2.13;;;0.20;99.90;;;;;;5045660;28;20190;-79
2021/01/09 00:04:42;;;;;;;3.37;2.00;;;0.20;99.90;;;;;;5045845;28;20221;-81
2021/01/09 00:07:11;;;;;;;2.20;2.00;;;0.20;99.90;;;;;;5047368;28;20270;-78
2021/01/09 00:09:37;;;;;;;2.27;1.43;;;0.30;99.90;;;;;;5046260;28;20476;-77
2021/01/09 00:12:04;;;;;;;2.87;2.47;;;0.30;99.90;;;;;;5047917;28;20197;-80
2021/01/09 00:14:30;;;;;;;2.43;1.50;;;0.20;99.90;;;;;;5047730;28;20301;-81
2021/01/09 00:16:55;;;;;;;2.20;1.57;;;0.20;99.90;;;;;;5045589;28;20621;-78
2021/01/09 00:19:21;;;;;;;2.87;2.60;;;0.20;99.90;;;;;;5046713;28;20189;-79
2021/01/09 00:21:46;;;;;;;1.63;1.53;;;0.30;99.90;;;;;;5046650;28;20277;-80
2021/01/09 00:24:12;;;;;;;5.07;2.63;;;0.20;99.90;;;;;;5046794;28;20178;-77
2021/01/09 00:26:38;;;;;;;3.13;2.10;;;0.20;99.90;;;;;;5061756;28;20182;-79
2021/01/09 00:29:05;;;;;;;4.73;2.30;;;0.20;99.90;;;;;;5046754;28;20411;-77
2021/01/09 00:31:31;;;;;;;2.30;2.07;;;0.20;99.90;;;;;;5045944;28;20190;-82
2021/01/09 00:33:56;;;;;;;2.10;1.60;;;0.20;99.90;;;;;;5045650;28;20535;-79
2021/01/09 00:36:22;;;;;;;2.50;1.77;;;0.20;99.90;;;;;;5044467;28;20257;-79
2021/01/09 00:38:48;;;;;;;3.67;2.47;;;0.20;99.90;;;;;;5045405;28;20197;-81
2021/01/09 00:41:13;;;;;;;2.33;1.57;;;0.30;99.90;;;;;;5045663;28;20265;-80
2021/01/09 00:43:39;;;;;;;2.60;2.17;;;0.20;99.90;;;;;;5046581;28;20269;-82
2021/01/09 00:46:04;;;;;;;3.13;1.60;;;0.20;99.90;;;;;;5044799;28;21218;-81
2021/01/09 00:48:30;;;;;;;2.47;1.90;;;0.20;99.90;;;;;;5045437;28;20675;-79
2021/01/09 00:50:56;;;;;;;3.47;1.97;;;0.20;99.90;;;;;;5044960;28;20198;-81
2021/01/09 00:53:21;;;;;;;3.40;2.50;;;0.30;99.90;;;;;;5046289;28;20813;-78
2021/01/09 00:55:47;;;;;;;3.17;2.27;;;0.20;99.90;;;;;;5047366;28;20940;-79
2021/01/09 00:58:12;;;;;;;1.43;1.30;;;0.30;99.90;;;;;;5046916;28;20187;-80
2021/01/09 01:00:38;;;;;;;2.40;2.20;;;0.20;99.90;;;;;;5048787;28;20247;-83
2021/01/09 01:03:05;;;;;;;3.03;2.17;;;0.20;99.90;;;;;;5048564;28;20189;-81
2021/01/09 01:05:30;;;;;;;3.50;2.03;;;0.20;99.90;;;;;;5047772;28;20210;-80
2021/01/09 01:07:56;;;;;;;3.77;2.70;;;0.30;99.90;;;;;;5047969;28;20663;-79
2021/01/09 01:10:21;;;;;;;2.10;1.90;;;0.30;99.90;;;;;;5048544;28;20270;-79
2021/01/09 01:12:47;;;;;;;3.27;2.57;;;0.30;99.90;;;;;;5049593;28;20800;-78
2021/01/09 01:15:13;;;;;;;4.53;3.20;;;0.30;99.90;;;;;;5049699;28;20209;-77
2021/01/09 01:17:39;;;;;;;8.53;2.80;;;0.30;99.90;;;;;;5048536;28;20235;-81
2021/01/09 01:20:05;;;;;;;3.70;2.60;;;0.20;99.90;;;;;;5048674;28;20244;-78
2021/01/09 01:22:31;;;;;;;3.10;2.67;;;0.20;99.90;;;;;;5047839;28;20212;-80
2021/01/09 01:24:56;;;;;;;4.37;2.80;;;0.20;99.90;;;;;;5047804;28;20214;-78
2021/01/09 01:27:22;;;;;;;5.17;3.40;;;0.20;99.90;;;;;;5047633;28;20198;-80
2021/01/09 01:29:47;;;;;;;2.57;2.30;;;0.30;99.90;;;;;;5048843;28;20186;-78
2021/01/09 01:32:13;;;;;;;5.83;3.17;;;0.20;99.90;;;;;;5049101;28;20278;-81
2021/01/09 01:34:38;;;;;;;4.80;3.43;;;0.20;99.90;;;;;;5047205;28;20299;-80
2021/01/09 01:37:04;;;;;;;4.10;2.83;;;0.20;99.90;;;;;;5048460;28;20565;-79
2021/01/09 01:39:30;;;;;;;3.23;2.63;;;0.20;99.90;;;;;;5048430;28;20236;-79
2021/01/09 01:41:56;;;;;;;3.20;2.53;;;0.10;99.90;;;;;;5062112;28;20775;-79
2021/01/09 01:44:22;;;;;;;3.10;2.33;;;0.10;99.90;;;;;;5046527;28;20186;-80
2021/01/09 01:46:48;;;;;;;2.10;1.63;;;0.20;99.90;;;;;;5045973;28;20221;-80
2021/01/09 01:49:13;;;;;;;4.43;2.37;;;0.20;99.90;;;;;;5046462;28;20221;-83
2021/01/09 01:51:41;;;;;;;3.20;2.50;;;0.10;99.90;;;;;;5046056;28;20198;-79
2021/01/09 01:54:07;;;;;;;4.10;3.17;;;0.20;99.90;;;;;;5045840;28;20185;-80
2021/01/09 01:56:34;;;;;;;2.93;2.27;;;0.20;99.90;;;;;;5044678;28;20232;-79
2021/01/09 01:58:59;;;;;;;3.43;2.47;;;0.20;99.90;;;;;;5045899;28;20240;-81
2021/01/09 02:01:26;;;;;;;3.47;2.37;;;0.20;99.90;;;;;;5046693;28;20190;-81
2021/01/09 02:03:52;;;;;;;3.50;2.97;;;0.10;99.90;;;;;;5045158;28;20182;-78
2021/01/09 02:06:24;;;;;;;2.27;2.07;;;0.20;99.90;;;;;;5045720;28;20263;-80
2021/01/09 02:09:01;;;;;;;3.53;3.23;;;0.10;99.90;;;;;;5046607;28;20271;-81
2021/01/09 02:12:06;;;;;;;2.17;2.00;;;0.10;99.90;;;;;;5046512;28;20629;-78
2021/01/09 02:14:43;;;;;;;2.37;1.90;;;0.20;99.90;;;;;;5040007;28;20255;-82
2021/01/09 02:17:09;;;;;;;2.23;1.90;;;0.20;99.90;;;;;;5053980;28;20720;-78
2021/01/09 02:19:38;;;;;;;1.40;1.30;;;0.10;99.90;;;;;;5046334;28;20179;-77
2021/01/09 02:22:05;;;;;;;2.57;1.87;;;0.00;99.90;;;;;;5044843;28;20224;-83
2021/01/09 02:24:31;;;;;;;2.30;2.10;;;0.00;99.90;;;;;;5044420;28;20202;-80
2021/01/09 02:26:56;;;;;;;3.67;2.80;;;0.00;99.90;;;;;;5044334;28;20228;-83
2021/01/09 02:29:24;;;;;;;3.53;2.57;;;0.10;99.90;;;;;;5045178;28;20694;-80
2021/01/09 02:31:57;;;;;;;2.50;2.03;;;0.00;99.90;;;;;;5043598;28;20204;-79
2021/01/09 02:34:25;;;;;;;3.97;2.83;;;0.20;99.90;;;;;;5044612;28;20210;-79
2021/01/09 02:36:51;;;;;;;2.93;2.70;;;0.10;99.90;;;;;;5043086;28;20198;-79
2021/01/09 02:39:18;;;;;;;2.93;2.03;;;0.10;99.90;;;;;;5044496;28;20210;-79
2021/01/09 02:41:47;;;;;;;3.20;2.67;;;0.10;99.90;;;;;;5043419;28;20182;-78
2021/01/09 02:44:14;;;;;;;4.57;2.83;;;0.00;99.90;;;;;;5043980;28;20667;-78
2021/01/09 02:46:40;;;;;;;4.43;2.67;;;0.00;99.90;;;;;;5042785;28;20773;-79
2021/01/09 02:49:06;;;;;;;3.60;2.43;;;0.00;99.90;;;;;;5044510;28;20682;-77
2021/01/09 02:51:35;;;;;;;2.33;2.03;;;0.10;99.90;;;;;;5043253;28;20196;-78
2021/01/09 02:54:01;;;;;;;2.67;2.37;;;0.10;99.90;;;;;;5042766;28;20779;-80
2021/01/09 02:56:27;;;;;;;1.93;1.77;;;0.10;99.90;;;;;;5042213;28;20300;-78
2021/01/09 02:58:52;;;;;;;1.60;1.37;;;0.10;99.90;;;;;;5043012;28;20193;-77
2021/01/09 03:01:18;;;;;;;2.70;1.73;;;0.00;99.90;;;;;;5043015;28;20550;-81
2021/01/09 03:03:43;;;;;;;1.37;1.27;;;0.10;99.90;;;;;;5043369;28;20221;-78
2021/01/09 03:06:09;;;;;;;2.53;1.87;;;0.00;99.90;;;;;;5042409;28;20213;-79
2021/01/09 03:08:35;;;;;;;2.27;2.07;;;0.10;99.90;;;;;;5044085;28;20213;-78
2021/01/09 03:11:00;;;;;;;3.87;2.33;;;0.10;99.90;;;;;;5042468;28;20190;-78
2021/01/09 03:13:26;;;;;;;2.90;2.27;;;0.10;99.90;;;;;;5043943;28;20190;-78
2021/01/09 03:15:51;;;;;;;3.07;1.97;;;0.10;99.90;;;;;;5044419;28;20246;-79
2021/01/09 03:18:17;;;;;;;2.60;1.70;;;0.10;99.90;;;;;;5044116;28;20193;-76
2021/01/09 03:20:43;;;;;;;1.90;1.70;;;0.20;99.90;;;;;;5045432;28;20282;-78
2021/01/09 03:23:08;;;;;;;3.33;2.37;;;0.20;99.90;;;;;;5044679;28;20190;-77
2021/01/09 03:25:34;;;;;;;1.57;1.47;;;0.20;99.90;;;;;;5043864;28;20284;-78
2021/01/09 03:27:59;;;;;;;3.70;2.07;;;0.20;99.90;;;;;;5044236;28;20196;-77
2021/01/09 03:30:25;;;;;;;2.83;1.80;;;0.20;99.90;;;;;;5044382;28;20194;-78
2021/01/09 03:32:50;;;;;;;2.60;2.07;;;0.20;99.90;;;;;;5044617;28;20194;-78
2021/01/09 03:35:16;;;;;;;2.03;1.87;;;0.10;99.90;;;;;;5045456;28;20221;-79
2021/01/09 03:37:42;;;;;;;2.13;1.63;;;0.10;99.90;;;;;;5046016;28;20186;-79
2021/01/09 03:40:08;;;;;;;3.17;1.83;;;0.10;99.90;;;;;;5045982;28;20644;-78
2021/01/09 03:42:33;;;;;;;2.20;1.70;;;0.10;99.90;;;;;;5045074;28;20182;-79
2021/01/09 03:44:59;;;;;;;2.70;2.20;;;0.10;99.90;;;;;;5045140;28;20230;-78
2021/01/09 03:47:25;;;;;;;2.60;1.87;;;0.20;99.90;;;;;;5045525;28;20217;-77
2021/01/09 03:49:51;;;;;;;4.70;2.40;;;0.10;99.90;;;;;;5046677;28;20599;-78
2021/01/09 03:52:16;;;;;;;4.30;2.07;;;0.10;99.90;;;;;;5046848;28;20228;-78
2021/01/09 03:54:42;;;;;;;2.47;2.17;;;0.20;99.90;;;;;;5046475;28;20221;-78
2021/01/09 03:57:08;;;;;;;2.63;2.10;;;0.10;99.90;;;;;;5046355;28;20565;-79
2021/01/09 03:59:34;;;;;;;2.70;2.17;;;0.10;99.90;;;;;;5045417;28;20186;-79
2021/01/09 04:01:59;;;;;;;2.83;2.30;;;0.20;99.90;;;;;;5046109;28;20190;-78
2021/01/09 04:04:25;;;;;;;2.90;1.70;;;0.10;99.90;;;;;;5046915;28;20206;-78
2021/01/09 04:06:50;;;;;;;3.37;2.30;;;0.10;99.90;;;;;;5048248;28;20182;-78
2021/01/09 04:09:16;;;;;;;2.03;1.80;;;0.10;99.90;;;;;;5051117;28;20652;-78
2021/01/09 04:11:41;;;;;;;3.33;2.27;;;0.10;99.90;;;;;;5051906;28;20183;-77
2021/01/09 04:14:07;;;;;;;2.37;1.67;;;0.10;99.90;;;;;;5051193;28;20190;-78
2021/01/09 04:16:36;;;;;;;2.00;1.77;;;0.10;99.90;;;;;;5049245;28;20584;-79
2021/01/09 04:19:03;;;;;;;4.03;2.30;;;0.10;99.90;;;;;;5051706;28;20170;-78
2021/01/09 04:21:29;;;;;;;2.57;1.40;;;0.10;99.90;;;;;;5050541;28;20184;-78
2021/01/09 04:23:55;;;;;;;3.40;2.10;;;0.20;99.90;;;;;;5051016;28;20186;-78
2021/01/09 04:26:20;;;;;;;2.47;2.10;;;0.10;99.90;;;;;;5049938;28;20214;-78
2021/01/09 04:28:46;;;;;;;3.27;2.60;;;0.10;99.90;;;;;;5052760;28;20194;-79
2021/01/09 04:31:15;;;;;;;4.03;2.60;;;0.10;99.90;;;;;;5052005;28;20240;-78
2021/01/09 04:33:42;;;;;;;3.50;2.47;;;0.10;99.90;;;;;;5050162;28;20190;-78
2021/01/09 04:36:07;;;;;;;4.00;3.03;;;0.10;99.90;;;;;;5051166;28;20309;-79
2021/01/09 04:38:33;;;;;;;3.20;2.60;;;0.10;99.90;;;;;;5052439;28;20253;-78
2021/01/09 04:40:59;;;;;;;2.23;2.00;;;0.10;99.90;;;;;;5048218;28;20179;-79
2021/01/09 04:43:26;;;;;;;3.50;2.40;;;0.20;99.90;;;;;;5052084;28;20178;-77
2021/01/09 04:45:52;;;;;;;2.40;2.20;;;0.20;99.90;;;;;;5050305;28;20691;-79
2021/01/09 04:48:19;;;;;;;3.03;2.57;;;0.10;99.90;;;;;;5051558;28;20193;-77
2021/01/09 04:50:50;;;;;;;2.47;1.97;;;0.20;99.90;;;;;;5051973;28;20718;-77
2021/01/09 04:53:18;;;;;;;3.83;1.93;;;0.20;99.90;;;;;;5050139;28;20236;-78
2021/01/09 04:55:45;;;;;;;2.33;2.13;;;0.10;99.90;;;;;;5049503;28;20210;-78
2021/01/09 04:58:11;;;;;;;2.93;1.73;;;0.10;99.90;;;;;;5050856;28;20178;-76
2021/01/09 05:00:37;;;;;;;3.27;2.23;;;0.20;99.90;;;;;;5050013;28;20186;-78
2021/01/09 05:03:03;;;;;;;2.83;2.47;;;0.20;99.90;;;;;;5051611;28;20247;-79
2021/01/09 05:05:29;;;;;;;2.37;2.13;;;0.20;99.90;;;;;;5049886;28;20210;-77
2021/01/09 05:07:55;;;;;;;2.77;2.30;;;0.10;99.90;;;;;;5049976;28;20343;-77
2021/01/09 05:10:20;;;;;;;3.37;3.07;;;0.20;99.90;;;;;;5051327;28;20196;-77
2021/01/09 05:12:46;;;;;;;3.27;2.97;;;0.20;99.90;;;;;;5051456;28;20186;-78
2021/01/09 05:15:12;;;;;;;3.83;3.00;;;0.20;99.90;;;;;;5049184;28;20973;-77
2021/01/09 05:17:39;;;;;;;3.10;2.47;;;0.20;99.90;;;;;;5049372;28;20186;-79
2021/01/09 05:20:08;;;;;;;3.87;2.77;;;0.20;99.90;;;;;;5049739;28;20815;-77
2021/01/09 05:22:38;;;;;;;4.27;2.37;;;0.20;99.90;;;;;;5050272;28;20261;-76
2021/01/09 05:25:05;;;;;;;3.87;3.10;;;0.20;99.90;;;;;;5050513;28;20229;-78
2021/01/09 05:27:32;;;;;;;3.40;2.30;;;0.10;99.90;;;;;;5050587;28;20308;-77
2021/01/09 05:29:58;;;;;;;3.90;2.40;;;0.20;99.90;;;;;;5049791;28;20174;-77
2021/01/09 05:32:24;;;;;;;3.70;2.60;;;0.20;99.90;;;;;;5049995;28;20197;-77
2021/01/09 05:34:53;;;;;;;2.53;2.13;;;0.20;99.90;;;;;;5049671;28;20206;-79
2021/01/09 05:37:24;;;;;;;2.97;2.07;;;0.20;99.90;;;;;;5046836;28;20194;-79
2021/01/09 05:39:51;;;;;;;2.47;1.80;;;0.30;99.90;;;;;;5048442;28;20197;-76
2021/01/09 05:42:20;;;;;;;4.20;2.63;;;0.20;99.90;;;;;;5049763;28;20191;-78
2021/01/09 05:44:46;;;;;;;2.60;2.40;;;0.30;99.90;;;;;;5048593;28;20220;-79
2021/01/09 05:47:12;;;;;;;3.10;2.00;;;0.20;99.90;;;;;;5047479;28;20712;-79
2021/01/09 05:49:42;;;;;;;3.90;2.50;;;0.20;99.90;;;;;;5049542;28;20186;-77
2021/01/09 05:52:08;;;;;;;2.67;2.40;;;0.20;99.90;;;;;;5050638;28;20186;-78
2021/01/09 05:54:36;;;;;;;2.40;2.03;;;0.20;99.90;;;;;;5051220;28;20221;-82
2021/01/09 05:57:04;;;;;;;2.63;2.00;;;0.20;99.90;;;;;;5051552;28;20194;-76
2021/01/09 05:59:32;;;;;;;3.07;2.37;;;0.20;99.90;;;;;;5050747;28;20668;-81
2021/01/09 06:01:59;;;;;;;2.33;1.93;;;0.20;99.90;;;;;;5050021;28;20193;-78
2021/01/09 06:04:32;;;;;;;3.13;1.90;;;0.20;99.90;;;;;;5049862;28;20240;-79
2021/01/09 06:07:20;;;;;;;3.57;2.93;;;0.30;99.90;;;;;;5049074;28;20216;-78
2021/01/09 06:09:58;;;;;;;2.10;1.90;;;0.30;99.90;;;;;;5048841;28;20235;-78
2021/01/09 06:12:26;;;;;;;2.33;1.87;;;0.30;99.90;;;;;;5050472;28;20561;-79
2021/01/09 06:14:53;;;;;;;3.67;2.40;;;0.30;99.90;;;;;;5049744;28;20924;-81
2021/01/09 06:17:21;;;;;;;3.33;2.97;;;0.20;99.90;;;;;;5049460;28;20185;-78
2021/01/09 06:19:47;;;;;;;2.17;1.90;;;0.20;99.90;;;;;;5050660;28;20186;-78
2021/01/09 06:22:14;;;;;;;3.13;2.10;;;0.20;99.90;;;;;;5048115;28;20859;-77
2021/01/09 06:24:40;;;;;;;3.83;2.70;;;0.20;99.90;;;;;;5049193;28;20201;-78
2021/01/09 06:27:21;;;;;;;2.73;2.30;;;0.20;99.90;;;;;;5048400;28;20179;-78
2021/01/09 06:29:48;;;;;;;3.37;2.90;;;0.10;99.90;;;;;;5046947;28;20189;-78
2021/01/09 06:32:19;;;;;;;3.70;3.20;;;0.20;99.90;;;;;;5047915;28;20678;-78
2021/01/09 06:34:48;;;;;;;4.67;3.17;;;0.10;99.90;;;;;;5047840;28;20232;-78
2021/01/09 06:37:20;;;;;;;2.97;1.93;;;0.10;99.90;;;;;;5047957;28;20209;-78
2021/01/09 06:39:46;;;;;;;3.73;3.17;;;0.10;99.90;;;;;;5050103;28;20170;-77
2021/01/09 06:42:12;;;;;;;4.60;3.37;;;0.10;99.90;;;;;;5050290;28;20687;-78
2021/01/09 06:44:39;;;;;;;3.23;2.67;;;0.20;99.90;;;;;;5049994;28;20745;-78
2021/01/09 06:47:04;;;;;;;3.77;3.07;;;0.20;99.90;;;;;;5047063;28;20177;-80
2021/01/09 06:49:30;;;;;;;5.33;3.33;;;0.20;99.90;;;;;;5047998;28;20182;-78
2021/01/09 06:52:01;;;;;;;4.10;2.30;;;0.20;99.90;;;;;;5048720;28;20647;-78
2021/01/09 06:54:30;;;;;;;4.13;3.07;;;0.20;99.90;;;;;;5049384;28;20285;-78
2021/01/09 06:57:05;;;;;;;4.07;3.23;;;0.20;99.90;;;;;;5049545;28;20206;-80
2021/01/09 06:59:41;;;;;;;4.10;3.60;;;0.20;99.90;;;;;;5049964;28;20769;-78
2021/01/09 07:02:23;;;;;;;5.33;2.83;;;0.20;99.90;;;;;;5049420;28;20709;-79
2021/01/09 07:05:06;;;;;;;13.20;6.87;;;0.20;99.90;;;;;;5049188;28;20228;-78
2021/01/09 07:07:35;;;;;;;3.90;3.03;;;0.20;99.90;;;;;;5049506;28;20186;-79
2021/01/09 07:10:15;;;;;;;4.43;3.90;;;0.20;99.90;;;;;;5050068;28;20174;-77
2021/01/09 07:12:46;;;;;;;5.70;3.40;;;0.20;99.90;;;;;;5047980;28;20185;-79
2021/01/09 07:15:13;;;;;;;2.57;2.30;;;0.20;99.90;;;;;;5048546;28;20210;-77
2021/01/09 07:17:40;;;;;;;3.30;2.70;;;0.20;99.90;;;;;;5049185;28;20673;-76
2021/01/09 07:20:11;;;;;;;3.87;2.83;;;0.30;99.90;;;;;;5046190;28;20552;-75
2021/01/09 07:22:41;;;;;;;3.20;2.53;;;0.30;99.90;;;;;;5049075;28;20182;-77
2021/01/09 07:25:10;;;;;;;3.77;2.63;;;0.30;99.90;;;;;;5048456;28;20278;-79
2021/01/09 07:27:44;;;;;;;4.00;3.03;;;0.30;99.90;;;;;;5048716;28;20190;-79
2021/01/09 07:30:18;;;;;;;4.07;3.40;;;0.30;99.90;;;;;;5049391;28;20879;-79
2021/01/09 07:32:51;;;;;;;2.70;2.33;;;0.30;99.90;;;;;;5048831;28;20179;-80
2021/01/09 07:35:28;;;;;;;5.27;3.93;;;0.30;99.90;;;;;;5048525;28;20210;-80
2021/01/09 07:38:03;;;;;;;5.10;3.73;;;0.30;99.90;;;;;;5046689;28;20193;-80
2021/01/09 07:40:51;;;;;;;3.67;2.70;;;0.30;99.90;;;;;;5049350;28;20213;-76
2021/01/09 07:43:35;;;;;;;3.30;3.00;;;0.30;99.90;;;;;;5040626;28;20263;-77
2021/01/09 07:46:20;;;;;;;3.30;2.80;;;0.40;99.90;;;;;;5044513;28;20259;-77
2021/01/09 07:48:47;;;;;;;3.60;2.73;;;0.50;99.90;;;;;;5046513;28;20213;-76
2021/01/09 07:51:12;;;;;;;3.43;2.80;;;0.40;99.90;;;;;;5045501;28;20550;-79
2021/01/09 07:53:47;;;;;;;3.57;3.07;;;0.40;99.90;;;;;;5044998;28;20197;-77
2021/01/09 07:56:38;;;;;;;2.87;2.27;;;0.50;99.90;;;;;;5046928;28;20288;-76
2021/01/09 07:59:06;;;;;;;2.07;1.87;;;0.50;99.90;;;;;;5046493;28;20197;-77
2021/01/09 08:01:42;;;;;;;4.60;2.93;;;0.50;99.90;;;;;;5046828;28;20197;-78
2021/01/09 08:04:10;;;;;;;4.10;2.90;;;0.60;99.90;;;;;;5045475;28;20182;-79
2021/01/09 08:06:39;;;;;;;3.63;3.07;;;0.70;99.90;;;;;;5047095;28;20236;-79
2021/01/09 08:09:06;;;;;;;4.70;3.60;;;0.70;99.90;;;;;;5045830;28;20182;-79
2021/01/09 08:11:31;;;;;;;4.00;2.77;;;0.80;99.90;;;;;;5046157;28;20186;-79
2021/01/09 08:14:01;;;;;;;4.20;3.17;;;0.70;99.90;;;;;;5047410;28;20205;-79
2021/01/09 08:16:27;;;;;;;4.07;2.87;;;0.80;99.90;;;;;;5045393;28;20225;-77
2021/01/09 08:18:52;;;;;;;4.63;3.10;;;0.80;99.90;;;;;;5046345;28;20965;-80
2021/01/09 08:21:23;;;;;;;5.07;3.33;;;0.80;99.90;;;;;;5045262;28;20189;-77
2021/01/09 08:23:54;;;;;;;3.60;2.17;;;0.80;99.90;;;;;;5046730;28;20210;-76
2021/01/09 08:26:22;;;;;;;4.13;3.60;;;0.90;99.90;;;;;;5045731;28;20218;-77
2021/01/09 08:28:50;;;;;;;5.13;3.27;;;0.80;99.90;;;;;;5045465;28;20190;-79
2021/01/09 08:31:16;;;;;;;4.97;2.50;;;0.90;99.90;;;;;;5046418;28;20496;-77
2021/01/09 08:33:47;;;;;;;5.33;2.83;;;0.80;99.90;;;;;;5043506;28;20236;-77
2021/01/09 08:36:15;;;;;;;4.93;2.70;;;1.00;99.90;;;;;;5047211;28;20300;-77
2021/01/09 08:38:41;;;;;;;5.27;3.27;;;1.00;99.90;;;;;;5048081;28;20217;-79
2021/01/09 08:41:06;;;;;;;9.83;3.67;;;1.10;99.90;;;;;;5047798;28;20218;-79
2021/01/09 08:43:32;;;;;;;4.13;2.43;;;1.10;99.90;;;;;;5064152;28;20251;-79
2021/01/09 08:45:58;;;;;;;4.47;3.23;;;1.10;99.90;;;;;;5048603;28;20224;-77
2021/01/09 08:48:35;;;;;;;6.63;3.20;;;1.10;99.90;;;;;;5048749;28;20233;-79
2021/01/09 08:51:12;;;;;;;3.33;2.33;;;1.10;99.90;;;;;;5049079;28;20212;-79
2021/01/09 08:53:46;;;;;;;2.57;2.13;;;1.10;99.90;;;;;;5050307;28;20182;-79
2021/01/09 08:56:13;;;;;;;3.97;2.73;;;1.10;99.90;;;;;;5048004;28;20469;-79
2021/01/09 08:58:39;;;;;;;3.23;2.13;;;1.10;99.90;;;;;;5049145;28;20281;-78
2021/01/09 09:01:12;;;;;;;4.03;3.17;;;1.20;99.90;;;;;;5049585;28;20186;-78
2021/01/09 09:03:44;;;;;;;3.47;2.30;;;1.20;99.90;;;;;;5048891;28;20675;-79
2021/01/09 09:06:14;;;;;;;3.13;1.93;;;1.20;99.90;;;;;;5050267;28;20245;-81
2021/01/09 09:08:40;;;;;;;4.47;2.60;;;1.20;99.90;;;;;;5050949;28;20194;-79
2021/01/09 09:11:07;;;;;;;4.50;3.10;;;1.30;99.90;;;;;;5048700;28;20193;-79
2021/01/09 09:13:32;;;;;;;5.80;3.43;;;1.30;99.90;;;;;;5048627;28;20243;-78
2021/01/09 09:16:14;;;;;;;4.20;2.87;;;1.30;99.90;;;;;;5048405;28;20206;-80
2021/01/09 09:18:40;;;;;;;2.77;2.23;;;1.40;99.90;;;;;;5063463;28;20409;-80
2021/01/09 09:21:09;;;;;;;2.93;1.93;;;1.40;99.90;;;;;;5048747;28;20305;-78
2021/01/09 09:23:35;;;;;;;4.27;2.77;;;1.40;99.90;;;;;;5050472;28;20566;-79
2021/01/09 09:26:11;;;;;;;3.17;1.93;;;1.40;99.90;;;;;;5051985;28;20214;-79
2021/01/09 09:28:51;;;;;;;3.53;2.80;;;1.40;99.90;;;;;;5054002;28;20692;-80
2021/01/09 09:31:21;;;;;;;3.97;3.30;;;1.40;99.90;;;;;;5051386;28;20240;-80
2021/01/09 09:34:11;;;;;;;5.17;3.33;;;1.40;99.90;;;;;;5051670;28;20201;-80
2021/01/09 09:36:58;;;;;;;2.57;1.53;;;1.40;99.90;;;;;;5052125;28;20225;-79
2021/01/09 09:39:24;;;;;;;4.03;2.40;;;1.50;99.90;;;;;;5051700;28;20198;-80
2021/01/09 09:42:01;;;;;;;2.80;2.10;;;1.50;99.90;;;;;;5051998;28;20673;-79
2021/01/09 09:44:41;;;;;;;3.53;2.60;;;1.60;99.90;;;;;;5051601;28;20224;-78
2021/01/09 09:47:10;;;;;;;2.50;2.00;;;1.60;99.90;;;;;;5052424;28;20253;-78
2021/01/09 09:49:37;;;;;;;3.50;2.93;;;1.70;99.90;;;;;;5050034;28;20217;-79
2021/01/09 09:52:23;;;;;;;2.67;1.47;;;1.60;99.90;;;;;;5054332;28;20208;-81
2021/01/09 09:55:06;;;;;;;3.53;2.37;;;1.70;99.90;;;;;;5052845;28;20217;-81
2021/01/09 09:57:32;;;;;;;2.37;2.07;;;1.90;99.90;;;;;;5053066;28;20186;-80
2021/01/09 10:00:11;;;;;;;3.43;2.90;;;1.90;99.90;;;;;;5054093;28;20750;-80
2021/01/09 10:02:37;;;;;;;3.10;2.57;;;1.90;99.90;;;;;;5050438;28;20213;-80
2021/01/09 10:05:14;;;;;;;4.00;2.90;;;1.90;99.90;;;;;;5052127;28;20285;-79
2021/01/09 10:07:39;;;;;;;2.93;1.63;;;1.90;99.90;;;;;;5056478;28;20246;-78
2021/01/09 10:10:16;;;;;;;3.50;2.37;;;1.80;99.90;;;;;;5053384;28;20214;-79
2021/01/09 10:12:41;;;;;;;3.47;2.40;;;1.80;99.90;;;;;;5056665;28;20700;-79
2021/01/09 10:15:10;;;;;;;2.87;2.30;;;1.90;99.90;;;;;;5055297;28;20210;-80
2021/01/09 10:17:36;;;;;;;3.53;2.47;;;2.00;99.90;;;;;;5057614;28;21226;-79
2021/01/09 10:20:02;;;;;;;3.00;2.30;;;1.90;99.90;;;;;;5056190;28;20285;-79
2021/01/09 10:22:27;;;;;;;2.60;2.40;;;1.90;99.90;;;;;;5056877;28;20199;-81
2021/01/09 10:24:53;;;;;;;2.47;2.07;;;1.90;99.90;;;;;;5056070;28;20307;-81
2021/01/09 10:27:18;;;;;;;5.40;3.03;;;1.90;99.90;;;;;;5053998;28;20197;-80
2021/01/09 10:29:44;;;;;;;3.23;2.50;;;1.80;99.90;;;;;;5055321;28;20186;-78
2021/01/09 10:32:09;;;;;;;5.07;3.20;;;1.90;99.90;;;;;;5051409;28;20644;-79
2021/01/09 10:34:35;;;;;;;3.83;2.87;;;1.90;99.90;;;;;;5052578;28;20687;-79
2021/01/09 10:37:01;;;;;;;5.33;3.63;;;1.90;99.90;;;;;;5052772;28;20260;-79
2021/01/09 10:39:26;;;;;;;3.70;2.70;;;2.00;99.90;;;;;;5051144;28;20222;-77
2021/01/09 10:41:52;;;;;;;5.70;3.40;;;2.00;99.90;;;;;;5049433;28;21894;-79
2021/01/09 10:44:17;;;;;;;6.40;3.43;;;2.00;99.90;;;;;;5050152;28;20186;-79
2021/01/09 10:46:43;;;;;;;4.97;3.70;;;2.10;99.90;;;;;;5050985;28;20194;-78
2021/01/09 10:49:08;;;;;;;5.00;3.27;;;2.10;99.90;;;;;;5051032;28;20201;-80
2021/01/09 10:51:34;;;;;;;5.80;3.50;;;2.20;99.90;;;;;;5051283;28;20198;-80
2021/01/09 10:54:02;;;;;;;4.63;3.60;;;2.20;99.90;;;;;;5050731;28;20198;-80
2021/01/09 10:56:27;;;;;;;3.97;2.60;;;2.30;99.90;;;;;;5050535;28;20657;-79
2021/01/09 10:58:53;;;;;;;5.23;3.87;;;2.30;99.90;;;;;;5049585;28;20182;-79
2021/01/09 11:01:21;;;;;;;4.83;3.57;;;2.30;99.90;;;;;;5052487;28;20193;-79
2021/01/09 11:03:47;;;;;;;4.97;3.13;;;2.30;99.90;;;;;;5050150;28;20277;-78
2021/01/09 11:06:22;;;;;;;3.60;2.70;;;2.30;99.90;;;;;;5051955;28;20619;-81
2021/01/09 11:08:49;;;;;;;4.77;3.20;;;2.30;99.90;;;;;;5050887;28;20186;-79
2021/01/09 11:11:14;;;;;;;4.90;3.10;;;2.30;99.90;;;;;;5049528;28;20297;-79
2021/01/09 11:13:40;;;;;;;4.20;3.13;;;2.30;99.90;;;;;;5052303;28;20726;-78
2021/01/09 11:16:07;;;;;;;3.00;2.70;;;2.30;99.90;;;;;;5055241;28;20372;-79
2021/01/09 11:18:32;;;;;;;4.47;3.50;;;2.40;99.90;;;;;;5056415;28;20182;-79
2021/01/09 11:20:58;;;;;;;4.90;3.80;;;2.50;99.90;;;;;;5054157;28;20190;-77
2021/01/09 11:23:23;;;;;;;7.17;4.13;;;2.50;99.90;;;;;;5052655;28;20248;-75
2021/01/09 11:25:49;;;;;;;5.20;3.30;;;2.50;99.90;;;;;;5049742;28;20198;-78
2021/01/09 11:28:15;;;;;;;5.77;2.97;;;2.40;99.90;;;;;;5052127;28;20192;-78
2021/01/09 11:30:44;;;;;;;3.33;2.40;;;2.40;99.90;;;;;;5046128;28;20686;-77
2021/01/09 11:33:10;;;;;;;3.90;2.83;;;2.50;99.90;;;;;;5046036;28;20194;-80
2021/01/09 11:35:38;;;;;;;5.57;3.40;;;2.60;99.90;;;;;;5043702;28;20650;-77
2021/01/09 11:38:04;;;;;;;4.20;3.17;;;2.60;99.90;;;;;;5045620;28;20210;-79
2021/01/09 11:40:29;;;;;;;5.13;3.30;;;2.60;99.90;;;;;;5046732;28;20225;-78
2021/01/09 11:42:56;;;;;;;5.10;3.70;;;2.60;99.90;;;;;;5045436;28;20182;-78
2021/01/09 11:45:25;;;;;;;4.80;3.67;;;2.60;99.90;;;;;;5045110;28;20412;-77
2021/01/09 11:47:50;;;;;;;6.00;4.07;;;2.70;99.90;;;;;;5061392;28;20194;-79
2021/01/09 11:50:17;;;;;;;5.00;3.63;;;2.70;99.90;;;;;;5045323;28;20529;-79
2021/01/09 11:52:43;;;;;;;5.20;3.37;;;2.60;99.90;;;;;;5047975;28;20281;-77
2021/01/09 11:55:09;;;;;;;14.50;4.60;;;2.60;99.90;;;;;;5046552;28;20695;-78
2021/01/09 11:57:35;;;;;;;4.93;3.20;;;2.60;99.90;;;;;;5046870;28;20271;-78
2021/01/09 12:00:03;;;;;;;3.47;2.67;;;2.50;99.90;;;;;;5048428;28;20237;-78
2021/01/09 12:02:28;;;;;;;6.43;4.00;;;2.40;99.90;;;;;;5045325;28;20208;-79
2021/01/09 12:04:54;;;;;;;6.03;4.10;;;2.50;99.90;;;;;;5045580;28;20861;-78
2021/01/09 12:07:19;;;;;;;5.73;4.10;;;2.40;99.90;;;;;;5046189;28;20539;-80
2021/01/09 12:09:45;;;;;;;7.47;5.80;;;2.30;99.90;;;;;;5045821;28;20209;-77
2021/01/09 12:12:10;;;;;;;7.83;3.87;;;2.40;99.90;;;;;;5046184;28;20187;-79
2021/01/09 12:14:36;;;;;;;5.67;3.80;;;2.40;99.90;;;;;;5044504;28;20217;-80
2021/01/09 12:17:02;;;;;;;4.80;3.43;;;2.50;99.90;;;;;;5043894;28;20209;-78
2021/01/09 12:19:28;;;;;;;3.83;3.10;;;2.40;99.90;;;;;;5045282;28;20197;-77
2021/01/09 12:21:57;;;;;;;3.33;2.90;;;2.40;99.90;;;;;;5045515;28;20186;-77
2021/01/09 12:24:23;;;;;;;3.60;2.40;;;2.40;99.90;;;;;;5046858;28;20672;-79
2021/01/09 12:26:55;;;;;;;3.10;2.47;;;2.40;99.90;;;;;;5043061;28;20316;-78
2021/01/09 12:29:22;;;;;;;3.77;2.90;;;2.20;99.90;;;;;;5044751;28;20198;-78
2021/01/09 12:31:48;;;;;;;4.30;2.97;;;2.30;99.90;;;;;;5043093;28;20209;-78
2021/01/09 12:34:17;;;;;;;4.23;2.80;;;2.20;99.90;;;;;;5044715;28;20236;-80
2021/01/09 12:36:46;;;;;;;3.57;2.80;;;2.20;99.90;;;;;;5041818;28;20217;-79
2021/01/09 12:39:12;;;;;;;3.30;2.17;;;2.20;99.90;;;;;;5044071;28;20468;-78
2021/01/09 12:41:39;;;;;;;4.53;3.33;;;2.30;99.90;;;;;;5043352;28;20648;-78
2021/01/09 12:44:06;;;;;;;2.50;2.27;;;2.20;99.90;;;;;;5042966;28;20183;-80
2021/01/09 12:46:34;;;;;;;4.20;3.37;;;2.20;99.90;;;;;;5041149;28;20550;-78
2021/01/09 12:49:00;;;;;;;3.87;3.10;;;2.20;99.90;;;;;;5043614;28;20215;-78
2021/01/09 12:51:25;;;;;;;4.10;3.13;;;2.20;99.90;;;;;;5041898;28;20186;-80
2021/01/09 12:53:51;;;;;;;4.33;3.50;;;2.20;99.90;;;;;;5042170;28;20336;-79
2021/01/09 12:56:17;;;;;;;4.90;2.93;;;2.10;99.90;;;;;;5043667;28;20687;-79
2021/01/09 12:58:42;;;;;;;4.30;2.93;;;2.10;99.90;;;;;;5042689;28;20456;-80
2021/01/09 13:01:08;;;;;;;5.93;2.87;;;2.10;99.90;;;;;;5042186;28;20182;-77
2021/01/09 13:03:33;;;;;;;3.43;2.73;;;2.10;99.90;;;;;;5042768;28;20193;-80